sensor_id;sensor_type;location;lat;lon;timestamp;P1;durP1;ratioP1;P2;durP2;ratioP2
63095;SDS011;49184;55.596;37.770;2022-10-23T00:00:57;26.37;;;10.93;;
63095;SDS011;49184;55.596;37.770;2022-10-23T00:04:32;27.17;;;11.18;;
63095;SDS011;49184;55.596;37.770;2022-10-23T00:07:02;31.85;;;10.23;;
63095;SDS011;49184;55.596;37.770;2022-10-23T00:10:29;24.52;;;9.85;;
63095;SDS011;49184;55.596;37.770;2022-10-23T00:13:09;22.83;;;10.13;;
63095;SDS011;49184;55.596;37.770;2022-10-23T00:15:56;22.92;;;10.07;;
63095;SDS011;49184;55.596;37.770;2022-10-23T00:18:29;21.70;;;10.02;;
63095;SDS011;49184;55.596;37.770;2022-10-23T00:21:36;27.73;;;9.13;;
63095;SDS011;49184;55.596;37.770;2022-10-23T00:24:10;20.17;;;9.75;;
63095;SDS011;49184;55.596;37.770;2022-10-23T00:26:41;17.50;;;8.80;;
63095;SDS011;49184;55.596;37.770;2022-10-23T00:29:32;20.40;;;9.80;;
63095;SDS011;49184;55.596;37.770;2022-10-23T00:32:00;22.10;;;9.90;;
63095;SDS011;49184;55.596;37.770;2022-10-23T00:34:27;19.83;;;9.70;;
63095;SDS011;49184;55.596;37.770;2022-10-23T00:36:55;18.60;;;10.07;;
63095;SDS011;49184;55.596;37.770;2022-10-23T00:39:25;18.65;;;9.73;;
63095;SDS011;49184;55.596;37.770;2022-10-23T00:48:02;23.33;;;9.68;;
63095;SDS011;49184;55.596;37.770;2022-10-23T00:51:34;17.25;;;8.68;;
63095;SDS011;49184;55.596;37.770;2022-10-23T00:55:45;20.95;;;9.18;;
63095;SDS011;49184;55.596;37.770;2022-10-23T00:58:47;19.67;;;9.63;;
63095;SDS011;49184;55.596;37.770;2022-10-23T01:09:56;19.80;;;10.02;;
63095;SDS011;49184;55.596;37.770;2022-10-23T01:33:11;16.17;;;9.32;;
63095;SDS011;49184;55.596;37.770;2022-10-23T01:36:25;21.42;;;10.80;;
63095;SDS011;49184;55.596;37.770;2022-10-23T01:42:10;26.42;;;10.63;;
63095;SDS011;49184;55.596;37.770;2022-10-23T01:45:42;20.40;;;9.93;;
63095;SDS011;49184;55.596;37.770;2022-10-23T01:48:58;20.23;;;10.25;;
63095;SDS011;49184;55.596;37.770;2022-10-23T01:52:33;25.25;;;10.40;;
63095;SDS011;49184;55.596;37.770;2022-10-23T01:56:07;21.85;;;10.85;;
63095;SDS011;49184;55.596;37.770;2022-10-23T01:59:02;23.60;;;10.77;;
63095;SDS011;49184;55.596;37.770;2022-10-23T02:02:05;26.02;;;12.13;;
63095;SDS011;49184;55.596;37.770;2022-10-23T02:07:39;23.33;;;11.40;;
63095;SDS011;49184;55.596;37.770;2022-10-23T02:10:08;21.83;;;11.88;;
63095;SDS011;49184;55.596;37.770;2022-10-23T02:13:02;25.67;;;12.02;;
63095;SDS011;49184;55.596;37.770;2022-10-23T02:15:47;29.55;;;11.93;;
63095;SDS011;49184;55.596;37.770;2022-10-23T02:23:42;26.45;;;12.43;;
63095;SDS011;49184;55.596;37.770;2022-10-23T02:26:54;24.67;;;12.37;;
63095;SDS011;49184;55.596;37.770;2022-10-23T02:29:33;30.88;;;13.60;;
63095;SDS011;49184;55.596;37.770;2022-10-23T02:32:33;29.65;;;12.85;;
63095;SDS011;49184;55.596;37.770;2022-10-23T02:39:00;23.48;;;12.00;;
63095;SDS011;49184;55.596;37.770;2022-10-23T03:06:09;34.13;;;14.15;;
63095;SDS011;49184;55.596;37.770;2022-10-23T03:09:18;28.83;;;14.52;;
63095;SDS011;49184;55.596;37.770;2022-10-23T03:12:46;30.95;;;14.43;;
63095;SDS011;49184;55.596;37.770;2022-10-23T03:15:24;28.63;;;14.77;;
63095;SDS011;49184;55.596;37.770;2022-10-23T03:18:20;34.97;;;14.10;;
63095;SDS011;49184;55.596;37.770;2022-10-23T03:21:04;32.15;;;14.30;;
63095;SDS011;49184;55.596;37.770;2022-10-23T03:24:19;34.35;;;14.48;;
63095;SDS011;49184;55.596;37.770;2022-10-23T03:28:03;28.17;;;14.05;;
63095;SDS011;49184;55.596;37.770;2022-10-23T03:30:57;31.50;;;14.40;;
63095;SDS011;49184;55.596;37.770;2022-10-23T03:34:04;31.65;;;14.88;;
63095;SDS011;49184;55.596;37.770;2022-10-23T03:36:48;32.20;;;15.05;;
63095;SDS011;49184;55.596;37.770;2022-10-23T03:39:28;32.75;;;14.70;;
63095;SDS011;49184;55.596;37.770;2022-10-23T03:42:30;34.65;;;14.90;;
63095;SDS011;49184;55.596;37.770;2022-10-23T03:51:14;32.72;;;15.60;;
63095;SDS011;49184;55.596;37.770;2022-10-23T03:54:23;36.70;;;14.80;;
63095;SDS011;49184;55.596;37.770;2022-10-23T03:57:20;30.95;;;14.82;;
63095;SDS011;49184;55.596;37.770;2022-10-23T04:00:11;36.10;;;15.60;;
63095;SDS011;49184;55.596;37.770;2022-10-23T04:02:43;31.17;;;14.25;;
63095;SDS011;49184;55.596;37.770;2022-10-23T04:05:15;37.05;;;15.38;;
63095;SDS011;49184;55.596;37.770;2022-10-23T04:08:11;33.08;;;14.30;;
63095;SDS011;49184;55.596;37.770;2022-10-23T04:11:21;36.65;;;14.73;;
63095;SDS011;49184;55.596;37.770;2022-10-23T04:13:57;30.30;;;13.57;;
63095;SDS011;49184;55.596;37.770;2022-10-23T04:16:31;32.28;;;14.48;;
63095;SDS011;49184;55.596;37.770;2022-10-23T04:19:28;29.10;;;14.20;;
63095;SDS011;49184;55.596;37.770;2022-10-23T04:22:13;35.97;;;15.82;;
63095;SDS011;49184;55.596;37.770;2022-10-23T04:24:39;46.17;;;17.45;;
63095;SDS011;49184;55.596;37.770;2022-10-23T04:27:18;34.25;;;15.20;;
63095;SDS011;49184;55.596;37.770;2022-10-23T04:29:53;32.58;;;15.57;;
63095;SDS011;49184;55.596;37.770;2022-10-23T04:32:27;35.22;;;15.45;;
63095;SDS011;49184;55.596;37.770;2022-10-23T04:38:29;34.70;;;14.80;;
63095;SDS011;49184;55.596;37.770;2022-10-23T04:41:10;32.63;;;15.23;;
63095;SDS011;49184;55.596;37.770;2022-10-23T04:44:09;40.63;;;14.82;;
63095;SDS011;49184;55.596;37.770;2022-10-23T04:46:55;39.78;;;15.23;;
63095;SDS011;49184;55.596;37.770;2022-10-23T04:49:30;41.70;;;16.75;;
63095;SDS011;49184;55.596;37.770;2022-10-23T04:52:30;47.55;;;16.60;;
63095;SDS011;49184;55.596;37.770;2022-10-23T04:55:29;36.63;;;16.23;;
63095;SDS011;49184;55.596;37.770;2022-10-23T04:58:40;35.53;;;15.45;;
63095;SDS011;49184;55.596;37.770;2022-10-23T05:01:22;40.55;;;17.30;;
63095;SDS011;49184;55.596;37.770;2022-10-23T05:03:59;41.05;;;17.50;;
63095;SDS011;49184;55.596;37.770;2022-10-23T05:10:30;40.55;;;17.23;;
63095;SDS011;49184;55.596;37.770;2022-10-23T05:20:25;40.60;;;17.27;;
63095;SDS011;49184;55.596;37.770;2022-10-23T05:26:03;47.50;;;18.05;;
63095;SDS011;49184;55.596;37.770;2022-10-23T05:28:30;45.92;;;17.98;;
63095;SDS011;49184;55.596;37.770;2022-10-23T05:30:57;48.17;;;20.83;;
63095;SDS011;49184;55.596;37.770;2022-10-23T05:33:27;41.00;;;18.25;;
63095;SDS011;49184;55.596;37.770;2022-10-23T05:35:54;39.15;;;16.75;;
63095;SDS011;49184;55.596;37.770;2022-10-23T05:40:49;44.65;;;18.67;;
63095;SDS011;49184;55.596;37.770;2022-10-23T05:43:22;34.80;;;16.55;;
63095;SDS011;49184;55.596;37.770;2022-10-23T05:45:52;40.17;;;17.58;;
63095;SDS011;49184;55.596;37.770;2022-10-23T05:48:53;32.50;;;15.70;;
63095;SDS011;49184;55.596;37.770;2022-10-23T05:51:55;42.53;;;17.45;;
63095;SDS011;49184;55.596;37.770;2022-10-23T05:54:32;46.80;;;18.67;;
63095;SDS011;49184;55.596;37.770;2022-10-23T05:57:19;42.22;;;18.58;;
63095;SDS011;49184;55.596;37.770;2022-10-23T05:59:51;36.97;;;17.20;;
63095;SDS011;49184;55.596;37.770;2022-10-23T06:02:26;37.42;;;17.17;;
63095;SDS011;49184;55.596;37.770;2022-10-23T06:04:59;38.67;;;17.13;;
63095;SDS011;49184;55.596;37.770;2022-10-23T06:07:47;45.75;;;17.98;;
63095;SDS011;49184;55.596;37.770;2022-10-23T06:10:13;37.15;;;16.52;;
63095;SDS011;49184;55.596;37.770;2022-10-23T06:12:43;38.90;;;16.63;;
63095;SDS011;49184;55.596;37.770;2022-10-23T06:15:14;42.75;;;19.02;;
63095;SDS011;49184;55.596;37.770;2022-10-23T06:17:57;41.25;;;17.35;;
63095;SDS011;49184;55.596;37.770;2022-10-23T06:20:26;35.42;;;16.83;;
63095;SDS011;49184;55.596;37.770;2022-10-23T06:23:02;37.22;;;16.73;;
63095;SDS011;49184;55.596;37.770;2022-10-23T06:25:50;37.42;;;16.80;;
63095;SDS011;49184;55.596;37.770;2022-10-23T06:28:24;39.75;;;17.67;;
63095;SDS011;49184;55.596;37.770;2022-10-23T06:30:50;55.50;;;20.73;;
63095;SDS011;49184;55.596;37.770;2022-10-23T06:33:17;42.90;;;19.27;;
63095;SDS011;49184;55.596;37.770;2022-10-23T06:35:43;40.83;;;18.77;;
63095;SDS011;49184;55.596;37.770;2022-10-23T06:38:11;40.35;;;19.85;;
63095;SDS011;49184;55.596;37.770;2022-10-23T06:40:50;37.33;;;17.55;;
63095;SDS011;49184;55.596;37.770;2022-10-23T06:43:24;37.22;;;17.73;;
63095;SDS011;49184;55.596;37.770;2022-10-23T06:46:17;32.75;;;15.73;;
63095;SDS011;49184;55.596;37.770;2022-10-23T06:52:02;39.25;;;16.02;;
63095;SDS011;49184;55.596;37.770;2022-10-23T06:54:36;37.47;;;16.73;;
63095;SDS011;49184;55.596;37.770;2022-10-23T06:57:18;35.35;;;16.83;;
63095;SDS011;49184;55.596;37.770;2022-10-23T06:59:45;37.47;;;16.35;;
63095;SDS011;49184;55.596;37.770;2022-10-23T07:02:13;33.03;;;15.63;;
63095;SDS011;49184;55.596;37.770;2022-10-23T07:04:41;32.13;;;16.13;;
63095;SDS011;49184;55.596;37.770;2022-10-23T07:07:29;33.08;;;16.08;;
63095;SDS011;49184;55.596;37.770;2022-10-23T07:09:56;59.75;;;18.98;;
63095;SDS011;49184;55.596;37.770;2022-10-23T07:12:42;36.00;;;16.35;;
63095;SDS011;49184;55.596;37.770;2022-10-23T07:15:50;35.70;;;17.23;;
63095;SDS011;49184;55.596;37.770;2022-10-23T07:18:42;37.25;;;18.13;;
63095;SDS011;49184;55.596;37.770;2022-10-23T07:21:38;40.83;;;17.17;;
63095;SDS011;49184;55.596;37.770;2022-10-23T07:24:24;38.33;;;18.40;;
63095;SDS011;49184;55.596;37.770;2022-10-23T07:26:53;39.65;;;16.85;;
63095;SDS011;49184;55.596;37.770;2022-10-23T07:29:22;36.70;;;18.23;;
63095;SDS011;49184;55.596;37.770;2022-10-23T07:31:52;37.97;;;16.25;;
63095;SDS011;49184;55.596;37.770;2022-10-23T07:35:03;45.25;;;17.48;;
63095;SDS011;49184;55.596;37.770;2022-10-23T07:37:37;37.95;;;17.45;;
63095;SDS011;49184;55.596;37.770;2022-10-23T07:40:04;44.28;;;17.50;;
63095;SDS011;49184;55.596;37.770;2022-10-23T07:42:45;41.35;;;17.17;;
63095;SDS011;49184;55.596;37.770;2022-10-23T07:45:15;38.35;;;17.50;;
63095;SDS011;49184;55.596;37.770;2022-10-23T07:47:48;38.95;;;17.20;;
63095;SDS011;49184;55.596;37.770;2022-10-23T07:50:17;41.63;;;17.40;;
63095;SDS011;49184;55.596;37.770;2022-10-23T07:52:48;37.60;;;16.95;;
63095;SDS011;49184;55.596;37.770;2022-10-23T07:55:16;45.13;;;18.77;;
63095;SDS011;49184;55.596;37.770;2022-10-23T08:00:31;36.10;;;16.48;;
63095;SDS011;49184;55.596;37.770;2022-10-23T08:03:08;41.70;;;18.30;;
63095;SDS011;49184;55.596;37.770;2022-10-23T08:05:39;50.67;;;18.42;;
63095;SDS011;49184;55.596;37.770;2022-10-23T08:08:05;45.27;;;19.77;;
63095;SDS011;49184;55.596;37.770;2022-10-23T08:10:54;44.85;;;18.92;;
63095;SDS011;49184;55.596;37.770;2022-10-23T08:13:27;44.33;;;18.48;;
63095;SDS011;49184;55.596;37.770;2022-10-23T08:16:10;43.95;;;19.70;;
63095;SDS011;49184;55.596;37.770;2022-10-23T08:18:58;61.45;;;18.52;;
63095;SDS011;49184;55.596;37.770;2022-10-23T08:21:27;49.88;;;18.60;;
63095;SDS011;49184;55.596;37.770;2022-10-23T08:27:20;48.25;;;19.05;;
63095;SDS011;49184;55.596;37.770;2022-10-23T08:29:49;51.20;;;20.40;;
63095;SDS011;49184;55.596;37.770;2022-10-23T08:32:21;65.15;;;23.10;;
63095;SDS011;49184;55.596;37.770;2022-10-23T08:34:56;64.22;;;20.98;;
63095;SDS011;49184;55.596;37.770;2022-10-23T08:37:30;58.30;;;24.08;;
63095;SDS011;49184;55.596;37.770;2022-10-23T08:45:55;53.63;;;19.13;;
63095;SDS011;49184;55.596;37.770;2022-10-23T08:49:23;54.72;;;20.23;;
63095;SDS011;49184;55.596;37.770;2022-10-23T08:52:42;63.25;;;20.60;;
63095;SDS011;49184;55.596;37.770;2022-10-23T08:58:33;58.17;;;20.25;;
63095;SDS011;49184;55.596;37.770;2022-10-23T09:01:10;55.75;;;21.70;;
63095;SDS011;49184;55.596;37.770;2022-10-23T09:04:45;50.92;;;19.88;;
63095;SDS011;49184;55.596;37.770;2022-10-23T09:13:12;48.45;;;19.42;;
63095;SDS011;49184;55.596;37.770;2022-10-23T09:19:48;57.78;;;20.67;;
63095;SDS011;49184;55.596;37.770;2022-10-23T09:22:56;58.20;;;20.27;;
63095;SDS011;49184;55.596;37.770;2022-10-23T09:25:30;51.30;;;20.25;;
63095;SDS011;49184;55.596;37.770;2022-10-23T09:28:34;51.90;;;19.85;;
63095;SDS011;49184;55.596;37.770;2022-10-23T09:31:59;54.72;;;20.55;;
63095;SDS011;49184;55.596;37.770;2022-10-23T09:34:31;51.78;;;21.23;;
63095;SDS011;49184;55.596;37.770;2022-10-23T09:42:27;60.67;;;23.58;;
63095;SDS011;49184;55.596;37.770;2022-10-23T09:45:56;79.47;;;29.60;;
63095;SDS011;49184;55.596;37.770;2022-10-23T09:49:01;62.20;;;28.05;;
63095;SDS011;49184;55.596;37.770;2022-10-23T09:51:28;67.28;;;26.50;;
63095;SDS011;49184;55.596;37.770;2022-10-23T09:53:56;65.32;;;25.73;;
63095;SDS011;49184;55.596;37.770;2022-10-23T09:59:03;66.32;;;23.63;;
63095;SDS011;49184;55.596;37.770;2022-10-23T10:02:25;57.53;;;23.27;;
63095;SDS011;49184;55.596;37.770;2022-10-23T10:05:28;66.60;;;23.83;;
63095;SDS011;49184;55.596;37.770;2022-10-23T10:10:33;61.20;;;23.60;;
63095;SDS011;49184;55.596;37.770;2022-10-23T10:13:13;72.43;;;27.50;;
63095;SDS011;49184;55.596;37.770;2022-10-23T10:16:24;65.97;;;24.45;;
63095;SDS011;49184;55.596;37.770;2022-10-23T10:22:00;58.35;;;23.25;;
63095;SDS011;49184;55.596;37.770;2022-10-23T10:24:35;52.63;;;22.05;;
63095;SDS011;49184;55.596;37.770;2022-10-23T10:53:30;63.10;;;23.38;;
63095;SDS011;49184;55.596;37.770;2022-10-23T10:56:11;64.95;;;24.65;;
63095;SDS011;49184;55.596;37.770;2022-10-23T11:04:20;71.00;;;27.10;;
63095;SDS011;49184;55.596;37.770;2022-10-23T11:06:50;79.47;;;30.40;;
63095;SDS011;49184;55.596;37.770;2022-10-23T11:09:24;70.07;;;26.90;;
63095;SDS011;49184;55.596;37.770;2022-10-23T11:11:56;68.78;;;26.15;;
63095;SDS011;49184;55.596;37.770;2022-10-23T11:14:25;71.03;;;26.20;;
63095;SDS011;49184;55.596;37.770;2022-10-23T11:17:07;74.78;;;27.13;;
63095;SDS011;49184;55.596;37.770;2022-10-23T11:19:36;72.88;;;25.05;;
63095;SDS011;49184;55.596;37.770;2022-10-23T11:25:07;74.28;;;24.55;;
63095;SDS011;49184;55.596;37.770;2022-10-23T11:38:44;64.60;;;27.40;;
63095;SDS011;49184;55.596;37.770;2022-10-23T11:43:50;70.28;;;25.98;;
63095;SDS011;49184;55.596;37.770;2022-10-23T11:46:29;72.15;;;28.08;;
63095;SDS011;49184;55.596;37.770;2022-10-23T11:48:58;86.03;;;31.33;;
63095;SDS011;49184;55.596;37.770;2022-10-23T11:51:31;81.20;;;31.38;;
63095;SDS011;49184;55.596;37.770;2022-10-23T11:54:23;87.22;;;33.17;;
63095;SDS011;49184;55.596;37.770;2022-10-23T11:59:35;84.18;;;33.42;;
63095;SDS011;49184;55.596;37.770;2022-10-23T12:02:08;68.72;;;29.55;;
63095;SDS011;49184;55.596;37.770;2022-10-23T12:04:47;71.15;;;29.08;;
63095;SDS011;49184;55.596;37.770;2022-10-23T12:07:28;79.53;;;30.25;;
63095;SDS011;49184;55.596;37.770;2022-10-23T12:09:59;70.57;;;28.80;;
63095;SDS011;49184;55.596;37.770;2022-10-23T12:12:33;75.47;;;26.38;;
63095;SDS011;49184;55.596;37.770;2022-10-23T12:15:08;64.10;;;24.52;;
63095;SDS011;49184;55.596;37.770;2022-10-23T12:17:40;63.55;;;24.73;;
63095;SDS011;49184;55.596;37.770;2022-10-23T12:25:08;57.72;;;26.63;;
63095;SDS011;49184;55.596;37.770;2022-10-23T12:27:44;61.25;;;25.77;;
63095;SDS011;49184;55.596;37.770;2022-10-23T12:33:20;69.70;;;23.70;;
63095;SDS011;49184;55.596;37.770;2022-10-23T12:41:16;66.90;;;27.65;;
63095;SDS011;49184;55.596;37.770;2022-10-23T12:44:08;89.60;;;34.00;;
63095;SDS011;49184;55.596;37.770;2022-10-23T12:46:47;107.57;;;39.13;;
63095;SDS011;49184;55.596;37.770;2022-10-23T12:49:17;93.45;;;38.92;;
63095;SDS011;49184;55.596;37.770;2022-10-23T12:51:57;104.78;;;40.20;;
63095;SDS011;49184;55.596;37.770;2022-10-23T12:54:31;106.10;;;38.60;;
63095;SDS011;49184;55.596;37.770;2022-10-23T12:57:14;104.68;;;42.55;;
63095;SDS011;49184;55.596;37.770;2022-10-23T12:59:59;86.75;;;36.80;;
63095;SDS011;49184;55.596;37.770;2022-10-23T13:02:30;91.07;;;38.70;;
63095;SDS011;49184;55.596;37.770;2022-10-23T13:05:00;86.70;;;33.10;;
63095;SDS011;49184;55.596;37.770;2022-10-23T13:07:33;92.82;;;36.30;;
63095;SDS011;49184;55.596;37.770;2022-10-23T13:10:04;97.28;;;37.58;;
63095;SDS011;49184;55.596;37.770;2022-10-23T13:12:34;104.25;;;36.08;;
63095;SDS011;49184;55.596;37.770;2022-10-23T13:22:47;89.35;;;36.03;;
63095;SDS011;49184;55.596;37.770;2022-10-23T13:25:35;69.32;;;30.33;;
63095;SDS011;49184;55.596;37.770;2022-10-23T13:33:43;68.82;;;30.30;;
63095;SDS011;49184;55.596;37.770;2022-10-23T13:39:03;64.97;;;28.80;;
63095;SDS011;49184;55.596;37.770;2022-10-23T13:41:45;63.92;;;28.25;;
63095;SDS011;49184;55.596;37.770;2022-10-23T13:44:17;69.53;;;29.48;;
63095;SDS011;49184;55.596;37.770;2022-10-23T13:46:46;68.32;;;29.38;;
63095;SDS011;49184;55.596;37.770;2022-10-23T13:49:13;72.03;;;30.73;;
63095;SDS011;49184;55.596;37.770;2022-10-23T13:51:51;82.45;;;30.50;;
63095;SDS011;49184;55.596;37.770;2022-10-23T13:54:20;68.95;;;30.00;;
63095;SDS011;49184;55.596;37.770;2022-10-23T13:56:48;77.10;;;33.70;;
63095;SDS011;49184;55.596;37.770;2022-10-23T13:59:19;88.35;;;36.63;;
63095;SDS011;49184;55.596;37.770;2022-10-23T14:01:46;93.37;;;37.10;;
63095;SDS011;49184;55.596;37.770;2022-10-23T14:04:15;85.18;;;35.95;;
63095;SDS011;49184;55.596;37.770;2022-10-23T14:06:42;93.78;;;34.80;;
63095;SDS011;49184;55.596;37.770;2022-10-23T14:09:16;76.82;;;30.48;;
63095;SDS011;49184;55.596;37.770;2022-10-23T14:11:43;71.90;;;30.98;;
63095;SDS011;49184;55.596;37.770;2022-10-23T14:14:09;82.13;;;33.15;;
63095;SDS011;49184;55.596;37.770;2022-10-23T14:16:43;84.88;;;34.08;;
63095;SDS011;49184;55.596;37.770;2022-10-23T14:19:17;108.00;;;40.28;;
63095;SDS011;49184;55.596;37.770;2022-10-23T14:21:46;119.30;;;44.47;;
63095;SDS011;49184;55.596;37.770;2022-10-23T14:24:14;110.40;;;45.17;;
63095;SDS011;49184;55.596;37.770;2022-10-23T14:26:53;116.72;;;45.85;;
63095;SDS011;49184;55.596;37.770;2022-10-23T14:29:28;87.65;;;37.63;;
63095;SDS011;49184;55.596;37.770;2022-10-23T14:37:56;93.90;;;30.60;;
63095;SDS011;49184;55.596;37.770;2022-10-23T14:40:29;81.50;;;30.33;;
63095;SDS011;49184;55.596;37.770;2022-10-23T14:42:59;65.93;;;29.90;;
63095;SDS011;49184;55.596;37.770;2022-10-23T14:49:27;65.65;;;28.67;;
63095;SDS011;49184;55.596;37.770;2022-10-23T14:51:54;73.38;;;30.20;;
63095;SDS011;49184;55.596;37.770;2022-10-23T14:54:24;71.22;;;28.80;;
63095;SDS011;49184;55.596;37.770;2022-10-23T14:56:50;71.38;;;29.15;;
63095;SDS011;49184;55.596;37.770;2022-10-23T14:59:17;72.90;;;30.60;;
63095;SDS011;49184;55.596;37.770;2022-10-23T15:01:47;77.15;;;32.28;;
63095;SDS011;49184;55.596;37.770;2022-10-23T15:04:13;85.03;;;34.00;;
63095;SDS011;49184;55.596;37.770;2022-10-23T15:09:11;77.75;;;29.77;;
63095;SDS011;49184;55.596;37.770;2022-10-23T15:11:38;84.03;;;31.88;;
63095;SDS011;49184;55.596;37.770;2022-10-23T15:14:06;75.80;;;29.98;;
63095;SDS011;49184;55.596;37.770;2022-10-23T15:16:33;69.85;;;31.92;;
63095;SDS011;49184;55.596;37.770;2022-10-23T15:19:09;77.85;;;30.52;;
63095;SDS011;49184;55.596;37.770;2022-10-23T15:21:38;77.45;;;31.75;;
63095;SDS011;49184;55.596;37.770;2022-10-23T15:24:06;73.47;;;30.60;;
63095;SDS011;49184;55.596;37.770;2022-10-23T15:26:33;67.28;;;29.38;;
63095;SDS011;49184;55.596;37.770;2022-10-23T15:29:03;81.05;;;29.67;;
63095;SDS011;49184;55.596;37.770;2022-10-23T15:34:11;82.45;;;32.47;;
63095;SDS011;49184;55.596;37.770;2022-10-23T15:47:49;65.45;;;26.33;;
63095;SDS011;49184;55.596;37.770;2022-10-23T15:50:23;69.10;;;24.88;;
63095;SDS011;49184;55.596;37.770;2022-10-23T15:53:17;72.85;;;25.20;;
63095;SDS011;49184;55.596;37.770;2022-10-23T15:55:50;62.70;;;24.48;;
63095;SDS011;49184;55.596;37.770;2022-10-23T15:58:24;66.47;;;25.02;;
63095;SDS011;49184;55.596;37.770;2022-10-23T16:00:54;60.72;;;25.52;;
63095;SDS011;49184;55.596;37.770;2022-10-23T16:03:26;67.30;;;26.40;;
63095;SDS011;49184;55.596;37.770;2022-10-23T16:05:55;60.08;;;26.50;;
63095;SDS011;49184;55.596;37.770;2022-10-23T16:11:27;81.30;;;29.77;;
63095;SDS011;49184;55.596;37.770;2022-10-23T16:13:57;74.00;;;29.92;;
63095;SDS011;49184;55.596;37.770;2022-10-23T16:16:29;82.25;;;30.98;;
63095;SDS011;49184;55.596;37.770;2022-10-23T16:19:00;72.55;;;29.13;;
63095;SDS011;49184;55.596;37.770;2022-10-23T16:21:30;72.07;;;29.67;;
63095;SDS011;49184;55.596;37.770;2022-10-23T16:24:06;77.13;;;29.55;;
63095;SDS011;49184;55.596;37.770;2022-10-23T16:26:36;67.88;;;28.13;;
63095;SDS011;49184;55.596;37.770;2022-10-23T16:29:05;81.15;;;30.08;;
63095;SDS011;49184;55.596;37.770;2022-10-23T16:31:35;72.40;;;28.20;;
63095;SDS011;49184;55.596;37.770;2022-10-23T16:34:07;81.00;;;31.08;;
63095;SDS011;49184;55.596;37.770;2022-10-23T16:40:04;67.30;;;28.02;;
63095;SDS011;49184;55.596;37.770;2022-10-23T16:42:53;66.50;;;27.25;;
63095;SDS011;49184;55.596;37.770;2022-10-23T16:45:31;61.90;;;25.92;;
63095;SDS011;49184;55.596;37.770;2022-10-23T16:47:58;60.80;;;26.63;;
63095;SDS011;49184;55.596;37.770;2022-10-23T16:50:30;59.78;;;25.95;;
63095;SDS011;49184;55.596;37.770;2022-10-23T16:52:57;62.90;;;26.38;;
63095;SDS011;49184;55.596;37.770;2022-10-23T16:55:26;57.00;;;26.45;;
63095;SDS011;49184;55.596;37.770;2022-10-23T16:57:57;62.03;;;26.83;;
63095;SDS011;49184;55.596;37.770;2022-10-23T17:00:25;65.40;;;27.30;;
63095;SDS011;49184;55.596;37.770;2022-10-23T17:03:02;63.03;;;26.98;;
63095;SDS011;49184;55.596;37.770;2022-10-23T17:05:33;64.43;;;27.15;;
63095;SDS011;49184;55.596;37.770;2022-10-23T17:08:03;58.30;;;26.08;;
63095;SDS011;49184;55.596;37.770;2022-10-23T17:10:29;63.90;;;26.52;;
63095;SDS011;49184;55.596;37.770;2022-10-23T17:13:03;61.47;;;26.00;;
63095;SDS011;49184;55.596;37.770;2022-10-23T17:15:36;62.28;;;27.08;;
63095;SDS011;49184;55.596;37.770;2022-10-23T17:21:19;65.03;;;27.17;;
63095;SDS011;49184;55.596;37.770;2022-10-23T17:23:48;55.65;;;25.63;;
63095;SDS011;49184;55.596;37.770;2022-10-23T17:26:18;69.57;;;29.52;;
63095;SDS011;49184;55.596;37.770;2022-10-23T17:28:47;73.53;;;30.85;;
63095;SDS011;49184;55.596;37.770;2022-10-23T17:31:19;65.25;;;28.85;;
63095;SDS011;49184;55.596;37.770;2022-10-23T17:33:54;57.08;;;27.00;;
63095;SDS011;49184;55.596;37.770;2022-10-23T17:36:25;57.33;;;26.50;;
63095;SDS011;49184;55.596;37.770;2022-10-23T17:38:54;59.20;;;26.75;;
63095;SDS011;49184;55.596;37.770;2022-10-23T17:41:26;60.58;;;26.95;;
63095;SDS011;49184;55.596;37.770;2022-10-23T17:43:55;57.53;;;25.80;;
63095;SDS011;49184;55.596;37.770;2022-10-23T17:46:26;58.88;;;27.88;;
63095;SDS011;49184;55.596;37.770;2022-10-23T17:48:55;60.50;;;27.33;;
63095;SDS011;49184;55.596;37.770;2022-10-23T17:51:48;51.70;;;26.67;;
63095;SDS011;49184;55.596;37.770;2022-10-23T17:54:25;58.75;;;26.80;;
63095;SDS011;49184;55.596;37.770;2022-10-23T17:56:56;58.30;;;28.00;;
63095;SDS011;49184;55.596;37.770;2022-10-23T17:59:30;59.65;;;26.85;;
63095;SDS011;49184;55.596;37.770;2022-10-23T18:02:00;58.65;;;27.42;;
63095;SDS011;49184;55.596;37.770;2022-10-23T18:06:55;65.88;;;32.10;;
63095;SDS011;49184;55.596;37.770;2022-10-23T18:09:25;68.05;;;33.47;;
63095;SDS011;49184;55.596;37.770;2022-10-23T18:11:52;77.80;;;33.88;;
63095;SDS011;49184;55.596;37.770;2022-10-23T18:14:20;62.15;;;32.63;;
63095;SDS011;49184;55.596;37.770;2022-10-23T18:16:48;62.28;;;30.45;;
63095;SDS011;49184;55.596;37.770;2022-10-23T18:19:17;62.33;;;30.00;;
63095;SDS011;49184;55.596;37.770;2022-10-23T18:21:47;59.30;;;28.67;;
63095;SDS011;49184;55.596;37.770;2022-10-23T18:24:22;60.22;;;29.58;;
63095;SDS011;49184;55.596;37.770;2022-10-23T18:26:51;60.95;;;27.40;;
63095;SDS011;49184;55.596;37.770;2022-10-23T18:29:18;63.30;;;28.10;;
63095;SDS011;49184;55.596;37.770;2022-10-23T18:31:48;64.50;;;29.45;;
63095;SDS011;49184;55.596;37.770;2022-10-23T18:34:19;64.72;;;28.58;;
63095;SDS011;49184;55.596;37.770;2022-10-23T18:36:49;61.45;;;27.70;;
63095;SDS011;49184;55.596;37.770;2022-10-23T18:39:19;58.40;;;25.90;;
63095;SDS011;49184;55.596;37.770;2022-10-23T18:41:51;55.70;;;24.35;;
63095;SDS011;49184;55.596;37.770;2022-10-23T18:44:21;59.83;;;26.60;;
63095;SDS011;49184;55.596;37.770;2022-10-23T18:46:52;58.88;;;26.67;;
63095;SDS011;49184;55.596;37.770;2022-10-23T18:49:19;58.55;;;26.27;;
63095;SDS011;49184;55.596;37.770;2022-10-23T18:51:48;52.22;;;23.63;;
63095;SDS011;49184;55.596;37.770;2022-10-23T18:54:17;53.85;;;26.25;;
63095;SDS011;49184;55.596;37.770;2022-10-23T18:56:47;54.05;;;25.75;;
63095;SDS011;49184;55.596;37.770;2022-10-23T18:59:16;56.42;;;27.05;;
63095;SDS011;49184;55.596;37.770;2022-10-23T19:01:48;51.28;;;23.80;;
63095;SDS011;49184;55.596;37.770;2022-10-23T19:04:15;48.70;;;23.65;;
63095;SDS011;49184;55.596;37.770;2022-10-23T19:06:43;55.55;;;24.30;;
63095;SDS011;49184;55.596;37.770;2022-10-23T19:09:15;53.22;;;24.27;;
63095;SDS011;49184;55.596;37.770;2022-10-23T19:11:54;53.17;;;23.65;;
63095;SDS011;49184;55.596;37.770;2022-10-23T19:14:24;46.92;;;23.05;;
63095;SDS011;49184;55.596;37.770;2022-10-23T19:17:04;50.65;;;22.60;;
63095;SDS011;49184;55.596;37.770;2022-10-23T19:19:40;55.42;;;24.38;;
63095;SDS011;49184;55.596;37.770;2022-10-23T19:22:42;56.72;;;24.20;;
63095;SDS011;49184;55.596;37.770;2022-10-23T19:25:30;58.80;;;24.45;;
63095;SDS011;49184;55.596;37.770;2022-10-23T19:28:13;68.50;;;26.63;;
63095;SDS011;49184;55.596;37.770;2022-10-23T19:30:39;64.97;;;26.17;;
63095;SDS011;49184;55.596;37.770;2022-10-23T19:33:06;66.37;;;28.27;;
63095;SDS011;49184;55.596;37.770;2022-10-23T19:35:32;64.40;;;28.77;;
63095;SDS011;49184;55.596;37.770;2022-10-23T19:37:59;66.97;;;28.60;;